Tain, United Kingdom

8:49 AM GMT on February 09, 2016 (GMT +0000)
Fearn | | Change Station
CLOSE
Current Station
Personal Weather Station
Location: Fearn,
Elevation: 95 ft
Nearby Weather Stations

Elev 95 ft 57.79 °N, 3.92 °W | Updated 1 second ago

Partly Cloudy
Partly Cloudy
32.7 °F
Feels Like 33 °F
N
0.2
Wind Variable Wind from SW
Gusts 2.5 mph

Today
High -- | Low -- °F
--% Chance of Precip.
Yesterday
High -- | Low -- °F
Precip. -- in
Pressure 28.82 in
Visibility 6.2 miles
Clouds Few 3000 ft
Windchill 33 °F
Dew Point 30 °F
Humidity 88%
Rainfall 0.00 in
Snow Depth Not available.
8:02 AM 4:58 PM
New Moon, 1% visible
METAR EGPE 090820Z 24007KT 9999 FEW030 M01/M02 Q0976
Pressure 28.82 in
Visibility 6.2 miles
Clouds Few 3000 ft
Windchill 33 °F
Dew Point 30 °F
Humidity 88%
Rainfall 0.00 in
Snow Depth Not available.
8:02 AM 4:58 PM
New Moon, 1% visible
METAR EGPE 090820Z 24007KT 9999 FEW030 M01/M02 Q0976

10-Day Weather Forecast

Almanac

Astronomy

Feb. 09, 2016 Rise Set
Actual Time
Civil Twilight
Nautical Twilight
Astronomical Twilight
Moon
Length of Visible Light
Length of Day
Tomorrow will be .
, % of the Moon is Illuminated

Today's Extremes

Country Highs Country Lows

Community

WunderPhotos

Upload Photos

1,891,571 photos uploaded!

WunderBlog® & News

Nearby

Air Quality

  Air Quality AQ Index Pollutant
Not available.

Snow Depth

Station Depth Elevation

Earthquake Activity

City Distance Mag. Time & Date
Minimum magnitude displayed is 2.5.

Coastal Water Temperatures

Place Temperature

Stations

Nearby Weather Stations

Station Location Temp. Windchill Dew Point Humidity Wind Precip. Elev Updated Type